sensor_id;sensor_type;location;lat;lon;timestamp;P1;durP1;ratioP1;P2;durP2;ratioP2
56345;SDS011;42246;46.096;13.644;2023-12-20T00:01:46;7.47;;;3.50;;
56345;SDS011;42246;46.096;13.644;2023-12-20T00:04:11;4.55;;;2.92;;
56345;SDS011;42246;46.096;13.644;2023-12-20T00:06:36;5.72;;;3.55;;
56345;SDS011;42246;46.096;13.644;2023-12-20T00:09:02;5.05;;;2.88;;
56345;SDS011;42246;46.096;13.644;2023-12-20T00:11:27;15.60;;;2.83;;
56345;SDS011;42246;46.096;13.644;2023-12-20T00:13:53;3.38;;;2.60;;
56345;SDS011;42246;46.096;13.644;2023-12-20T00:16:18;8.05;;;2.95;;
56345;SDS011;42246;46.096;13.644;2023-12-20T00:18:44;3.90;;;3.35;;
56345;SDS011;42246;46.096;13.644;2023-12-20T00:21:09;4.22;;;2.63;;
56345;SDS011;42246;46.096;13.644;2023-12-20T00:23:35;3.00;;;1.98;;
56345;SDS011;42246;46.096;13.644;2023-12-20T00:26:00;6.63;;;2.35;;
56345;SDS011;42246;46.096;13.644;2023-12-20T00:28:26;3.63;;;2.95;;
56345;SDS011;42246;46.096;13.644;2023-12-20T00:30:51;9.00;;;3.08;;
56345;SDS011;42246;46.096;13.644;2023-12-20T00:33:16;4.60;;;2.20;;
56345;SDS011;42246;46.096;13.644;2023-12-20T00:35:42;4.88;;;2.78;;
56345;SDS011;42246;46.096;13.644;2023-12-20T00:38:07;6.22;;;2.65;;
56345;SDS011;42246;46.096;13.644;2023-12-20T00:40:34;5.65;;;2.90;;
56345;SDS011;42246;46.096;13.644;2023-12-20T00:42:59;5.68;;;2.88;;
56345;SDS011;42246;46.096;13.644;2023-12-20T00:45:25;4.10;;;2.67;;
56345;SDS011;42246;46.096;13.644;2023-12-20T00:47:50;5.38;;;3.22;;
56345;SDS011;42246;46.096;13.644;2023-12-20T00:50:16;4.68;;;3.05;;
56345;SDS011;42246;46.096;13.644;2023-12-20T00:52:41;6.93;;;3.17;;
56345;SDS011;42246;46.096;13.644;2023-12-20T00:55:07;6.32;;;3.00;;
56345;SDS011;42246;46.096;13.644;2023-12-20T00:57:32;3.13;;;2.15;;
56345;SDS011;42246;46.096;13.644;2023-12-20T00:59:58;4.78;;;3.30;;
56345;SDS011;42246;46.096;13.644;2023-12-20T01:02:24;4.82;;;2.70;;
56345;SDS011;42246;46.096;13.644;2023-12-20T01:04:49;6.90;;;2.28;;
56345;SDS011;42246;46.096;13.644;2023-12-20T01:07:15;14.13;;;3.17;;
56345;SDS011;42246;46.096;13.644;2023-12-20T01:09:40;5.93;;;2.65;;
56345;SDS011;42246;46.096;13.644;2023-12-20T01:12:06;5.35;;;2.67;;
56345;SDS011;42246;46.096;13.644;2023-12-20T01:14:31;5.47;;;3.13;;
56345;SDS011;42246;46.096;13.644;2023-12-20T01:16:56;5.53;;;2.17;;
56345;SDS011;42246;46.096;13.644;2023-12-20T01:19:22;7.68;;;3.55;;
56345;SDS011;42246;46.096;13.644;2023-12-20T01:21:49;5.28;;;3.33;;
56345;SDS011;42246;46.096;13.644;2023-12-20T01:24:14;3.70;;;1.60;;
56345;SDS011;42246;46.096;13.644;2023-12-20T01:26:39;2.78;;;2.17;;
56345;SDS011;42246;46.096;13.644;2023-12-20T01:29:05;5.25;;;2.50;;
56345;SDS011;42246;46.096;13.644;2023-12-20T01:31:30;3.40;;;2.40;;
56345;SDS011;42246;46.096;13.644;2023-12-20T01:33:56;6.28;;;3.05;;
56345;SDS011;42246;46.096;13.644;2023-12-20T01:36:21;4.30;;;2.35;;
56345;SDS011;42246;46.096;13.644;2023-12-20T01:38:47;4.07;;;2.53;;
56345;SDS011;42246;46.096;13.644;2023-12-20T01:41:12;4.57;;;2.40;;
56345;SDS011;42246;46.096;13.644;2023-12-20T01:43:38;3.80;;;1.70;;
56345;SDS011;42246;46.096;13.644;2023-12-20T01:46:03;3.45;;;2.35;;
56345;SDS011;42246;46.096;13.644;2023-12-20T01:48:29;4.18;;;2.00;;
56345;SDS011;42246;46.096;13.644;2023-12-20T01:50:57;6.05;;;3.25;;
56345;SDS011;42246;46.096;13.644;2023-12-20T01:53:23;3.85;;;2.78;;
56345;SDS011;42246;46.096;13.644;2023-12-20T01:55:50;5.80;;;2.80;;
56345;SDS011;42246;46.096;13.644;2023-12-20T01:58:17;5.18;;;2.60;;
56345;SDS011;42246;46.096;13.644;2023-12-20T02:00:43;2.63;;;2.05;;
56345;SDS011;42246;46.096;13.644;2023-12-20T02:03:09;6.47;;;2.63;;
56345;SDS011;42246;46.096;13.644;2023-12-20T02:05:35;6.65;;;2.17;;
56345;SDS011;42246;46.096;13.644;2023-12-20T02:08:01;3.65;;;2.13;;
56345;SDS011;42246;46.096;13.644;2023-12-20T02:10:27;5.72;;;1.98;;
56345;SDS011;42246;46.096;13.644;2023-12-20T02:12:54;3.92;;;2.28;;
56345;SDS011;42246;46.096;13.644;2023-12-20T02:15:19;2.97;;;2.22;;
56345;SDS011;42246;46.096;13.644;2023-12-20T02:17:45;5.07;;;2.50;;
56345;SDS011;42246;46.096;13.644;2023-12-20T02:20:11;3.80;;;2.95;;
56345;SDS011;42246;46.096;13.644;2023-12-20T02:22:37;4.18;;;2.05;;
56345;SDS011;42246;46.096;13.644;2023-12-20T02:25:02;4.75;;;2.47;;
56345;SDS011;42246;46.096;13.644;2023-12-20T02:27:28;5.85;;;2.63;;
56345;SDS011;42246;46.096;13.644;2023-12-20T02:29:54;3.85;;;2.88;;
56345;SDS011;42246;46.096;13.644;2023-12-20T02:32:20;3.97;;;1.92;;
56345;SDS011;42246;46.096;13.644;2023-12-20T02:34:49;3.40;;;1.73;;
56345;SDS011;42246;46.096;13.644;2023-12-20T02:37:14;4.65;;;2.72;;
56345;SDS011;42246;46.096;13.644;2023-12-20T02:39:40;5.95;;;2.58;;
56345;SDS011;42246;46.096;13.644;2023-12-20T02:42:05;4.72;;;2.35;;
56345;SDS011;42246;46.096;13.644;2023-12-20T02:44:31;5.32;;;2.35;;
56345;SDS011;42246;46.096;13.644;2023-12-20T02:46:56;3.33;;;2.28;;
56345;SDS011;42246;46.096;13.644;2023-12-20T02:49:22;4.90;;;1.60;;
56345;SDS011;42246;46.096;13.644;2023-12-20T02:51:47;3.78;;;2.78;;
56345;SDS011;42246;46.096;13.644;2023-12-20T02:54:13;3.83;;;2.83;;
56345;SDS011;42246;46.096;13.644;2023-12-20T02:56:38;5.65;;;2.95;;
56345;SDS011;42246;46.096;13.644;2023-12-20T02:59:03;3.35;;;2.25;;
56345;SDS011;42246;46.096;13.644;2023-12-20T03:01:31;2.90;;;1.95;;
56345;SDS011;42246;46.096;13.644;2023-12-20T03:03:56;4.47;;;3.15;;
56345;SDS011;42246;46.096;13.644;2023-12-20T03:06:22;2.92;;;2.15;;
56345;SDS011;42246;46.096;13.644;2023-12-20T03:08:47;4.53;;;3.15;;
56345;SDS011;42246;46.096;13.644;2023-12-20T03:11:13;5.30;;;3.25;;
56345;SDS011;42246;46.096;13.644;2023-12-20T03:13:38;3.80;;;2.05;;
56345;SDS011;42246;46.096;13.644;2023-12-20T03:16:10;4.82;;;2.00;;
56345;SDS011;42246;46.096;13.644;2023-12-20T03:18:36;5.63;;;2.67;;
56345;SDS011;42246;46.096;13.644;2023-12-20T03:21:02;3.67;;;2.35;;
56345;SDS011;42246;46.096;13.644;2023-12-20T03:23:29;4.38;;;2.92;;
56345;SDS011;42246;46.096;13.644;2023-12-20T03:25:55;6.28;;;3.13;;
56345;SDS011;42246;46.096;13.644;2023-12-20T03:28:21;4.47;;;2.55;;
56345;SDS011;42246;46.096;13.644;2023-12-20T03:30:48;4.43;;;3.28;;
56345;SDS011;42246;46.096;13.644;2023-12-20T03:33:13;3.30;;;2.30;;
56345;SDS011;42246;46.096;13.644;2023-12-20T03:35:39;4.03;;;2.33;;
56345;SDS011;42246;46.096;13.644;2023-12-20T03:38:04;2.90;;;2.58;;
56345;SDS011;42246;46.096;13.644;2023-12-20T03:40:30;5.55;;;3.47;;
56345;SDS011;42246;46.096;13.644;2023-12-20T03:42:55;3.40;;;3.10;;
56345;SDS011;42246;46.096;13.644;2023-12-20T03:45:21;2.90;;;2.17;;
56345;SDS011;42246;46.096;13.644;2023-12-20T03:47:46;7.80;;;4.13;;
56345;SDS011;42246;46.096;13.644;2023-12-20T03:50:25;6.93;;;2.28;;
56345;SDS011;42246;46.096;13.644;2023-12-20T03:52:51;5.50;;;2.83;;
56345;SDS011;42246;46.096;13.644;2023-12-20T03:55:16;3.30;;;2.78;;
56345;SDS011;42246;46.096;13.644;2023-12-20T03:57:42;4.95;;;2.45;;
56345;SDS011;42246;46.096;13.644;2023-12-20T04:00:08;4.40;;;2.42;;
56345;SDS011;42246;46.096;13.644;2023-12-20T04:02:37;3.22;;;2.03;;
56345;SDS011;42246;46.096;13.644;2023-12-20T04:05:04;5.00;;;2.53;;
56345;SDS011;42246;46.096;13.644;2023-12-20T04:07:30;3.90;;;2.80;;
56345;SDS011;42246;46.096;13.644;2023-12-20T04:09:55;3.53;;;2.20;;
56345;SDS011;42246;46.096;13.644;2023-12-20T04:12:21;4.93;;;2.15;;
56345;SDS011;42246;46.096;13.644;2023-12-20T04:14:46;6.00;;;2.72;;
56345;SDS011;42246;46.096;13.644;2023-12-20T04:17:12;4.90;;;2.60;;
56345;SDS011;42246;46.096;13.644;2023-12-20T04:19:37;5.65;;;2.17;;
56345;SDS011;42246;46.096;13.644;2023-12-20T04:22:03;3.88;;;1.70;;
56345;SDS011;42246;46.096;13.644;2023-12-20T04:24:28;4.53;;;2.28;;
56345;SDS011;42246;46.096;13.644;2023-12-20T04:26:54;2.75;;;1.80;;
56345;SDS011;42246;46.096;13.644;2023-12-20T04:29:19;3.67;;;2.35;;
56345;SDS011;42246;46.096;13.644;2023-12-20T04:31:45;5.05;;;2.47;;
56345;SDS011;42246;46.096;13.644;2023-12-20T04:34:10;3.17;;;1.67;;
56345;SDS011;42246;46.096;13.644;2023-12-20T04:36:36;3.30;;;2.50;;
56345;SDS011;42246;46.096;13.644;2023-12-20T04:39:01;2.75;;;2.17;;
56345;SDS011;42246;46.096;13.644;2023-12-20T04:41:28;6.32;;;3.25;;
56345;SDS011;42246;46.096;13.644;2023-12-20T04:43:53;5.03;;;2.58;;
56345;SDS011;42246;46.096;13.644;2023-12-20T04:46:19;3.15;;;1.77;;
56345;SDS011;42246;46.096;13.644;2023-12-20T04:48:44;3.80;;;1.75;;
56345;SDS011;42246;46.096;13.644;2023-12-20T04:51:09;13.77;;;6.55;;
56345;SDS011;42246;46.096;13.644;2023-12-20T04:53:35;22.88;;;7.65;;
56345;SDS011;42246;46.096;13.644;2023-12-20T04:56:00;38.50;;;14.32;;
56345;SDS011;42246;46.096;13.644;2023-12-20T04:58:26;34.55;;;13.75;;
56345;SDS011;42246;46.096;13.644;2023-12-20T05:00:51;55.10;;;19.60;;
56345;SDS011;42246;46.096;13.644;2023-12-20T05:03:18;42.55;;;18.73;;
56345;SDS011;42246;46.096;13.644;2023-12-20T05:05:46;52.17;;;22.42;;
56345;SDS011;42246;46.096;13.644;2023-12-20T05:08:11;78.78;;;26.98;;
56345;SDS011;42246;46.096;13.644;2023-12-20T05:10:37;65.15;;;24.83;;
56345;SDS011;42246;46.096;13.644;2023-12-20T05:13:02;41.60;;;17.27;;
56345;SDS011;42246;46.096;13.644;2023-12-20T05:15:28;43.00;;;15.55;;
56345;SDS011;42246;46.096;13.644;2023-12-20T05:17:53;22.02;;;9.90;;
56345;SDS011;42246;46.096;13.644;2023-12-20T05:20:19;33.97;;;13.23;;
56345;SDS011;42246;46.096;13.644;2023-12-20T05:22:44;39.67;;;15.13;;
56345;SDS011;42246;46.096;13.644;2023-12-20T05:25:10;35.83;;;14.43;;
56345;SDS011;42246;46.096;13.644;2023-12-20T05:27:35;44.30;;;17.63;;
56345;SDS011;42246;46.096;13.644;2023-12-20T05:30:01;29.90;;;11.63;;
56345;SDS011;42246;46.096;13.644;2023-12-20T05:32:26;36.78;;;12.10;;
56345;SDS011;42246;46.096;13.644;2023-12-20T05:34:52;33.63;;;11.30;;
56345;SDS011;42246;46.096;13.644;2023-12-20T05:37:17;27.67;;;11.40;;
56345;SDS011;42246;46.096;13.644;2023-12-20T05:39:43;62.15;;;16.48;;
56345;SDS011;42246;46.096;13.644;2023-12-20T05:42:08;59.92;;;18.70;;
56345;SDS011;42246;46.096;13.644;2023-12-20T05:44:34;44.17;;;14.93;;
56345;SDS011;42246;46.096;13.644;2023-12-20T05:46:59;60.38;;;19.20;;
56345;SDS011;42246;46.096;13.644;2023-12-20T05:49:24;130.63;;;33.15;;
56345;SDS011;42246;46.096;13.644;2023-12-20T05:51:50;32.42;;;9.43;;
56345;SDS011;42246;46.096;13.644;2023-12-20T05:54:16;67.45;;;17.50;;
56345;SDS011;42246;46.096;13.644;2023-12-20T05:56:41;60.70;;;15.98;;
56345;SDS011;42246;46.096;13.644;2023-12-20T05:59:07;107.35;;;29.98;;
56345;SDS011;42246;46.096;13.644;2023-12-20T06:01:33;87.35;;;26.30;;
56345;SDS011;42246;46.096;13.644;2023-12-20T06:03:58;117.95;;;35.80;;
56345;SDS011;42246;46.096;13.644;2023-12-20T06:06:24;106.68;;;31.75;;
56345;SDS011;42246;46.096;13.644;2023-12-20T06:08:49;48.78;;;17.48;;
56345;SDS011;42246;46.096;13.644;2023-12-20T06:11:14;107.28;;;30.08;;
56345;SDS011;42246;46.096;13.644;2023-12-20T06:13:40;115.18;;;31.95;;
56345;SDS011;42246;46.096;13.644;2023-12-20T06:16:06;122.22;;;41.17;;
56345;SDS011;42246;46.096;13.644;2023-12-20T06:18:34;145.98;;;45.70;;
56345;SDS011;42246;46.096;13.644;2023-12-20T06:21:01;105.28;;;35.80;;
56345;SDS011;42246;46.096;13.644;2023-12-20T06:23:27;45.97;;;18.33;;
56345;SDS011;42246;46.096;13.644;2023-12-20T06:25:53;57.45;;;22.13;;
56345;SDS011;42246;46.096;13.644;2023-12-20T06:28:18;33.35;;;15.50;;
56345;SDS011;42246;46.096;13.644;2023-12-20T06:30:44;56.15;;;19.13;;
56345;SDS011;42246;46.096;13.644;2023-12-20T06:33:10;101.38;;;27.02;;
56345;SDS011;42246;46.096;13.644;2023-12-20T06:35:36;157.70;;;44.92;;
56345;SDS011;42246;46.096;13.644;2023-12-20T06:38:02;181.90;;;56.90;;
56345;SDS011;42246;46.096;13.644;2023-12-20T06:40:27;104.88;;;33.42;;
56345;SDS011;42246;46.096;13.644;2023-12-20T06:42:53;109.55;;;37.30;;
56345;SDS011;42246;46.096;13.644;2023-12-20T06:45:19;104.82;;;28.05;;
56345;SDS011;42246;46.096;13.644;2023-12-20T06:47:44;142.35;;;37.40;;
56345;SDS011;42246;46.096;13.644;2023-12-20T06:50:10;95.53;;;25.10;;
56345;SDS011;42246;46.096;13.644;2023-12-20T06:52:35;51.72;;;14.90;;
56345;SDS011;42246;46.096;13.644;2023-12-20T06:55:01;124.93;;;35.58;;
56345;SDS011;42246;46.096;13.644;2023-12-20T06:57:26;52.28;;;18.30;;
56345;SDS011;42246;46.096;13.644;2023-12-20T06:59:52;115.13;;;33.13;;
56345;SDS011;42246;46.096;13.644;2023-12-20T07:02:18;90.38;;;28.75;;
56345;SDS011;42246;46.096;13.644;2023-12-20T07:04:43;61.88;;;21.40;;
56345;SDS011;42246;46.096;13.644;2023-12-20T07:07:09;64.03;;;21.60;;
56345;SDS011;42246;46.096;13.644;2023-12-20T07:09:34;26.05;;;10.73;;
56345;SDS011;42246;46.096;13.644;2023-12-20T07:12:00;23.23;;;10.20;;
56345;SDS011;42246;46.096;13.644;2023-12-20T07:14:25;16.65;;;8.57;;
56345;SDS011;42246;46.096;13.644;2023-12-20T07:16:51;14.10;;;9.63;;
56345;SDS011;42246;46.096;13.644;2023-12-20T07:19:16;6.32;;;3.95;;
56345;SDS011;42246;46.096;13.644;2023-12-20T07:21:42;24.52;;;8.55;;
56345;SDS011;42246;46.096;13.644;2023-12-20T07:24:07;113.05;;;30.17;;
56345;SDS011;42246;46.096;13.644;2023-12-20T07:26:33;43.97;;;17.45;;
56345;SDS011;42246;46.096;13.644;2023-12-20T07:28:59;20.80;;;9.45;;
56345;SDS011;42246;46.096;13.644;2023-12-20T07:31:24;5.38;;;3.42;;
56345;SDS011;42246;46.096;13.644;2023-12-20T07:33:50;3.08;;;2.00;;
56345;SDS011;42246;46.096;13.644;2023-12-20T07:36:15;8.77;;;4.53;;
56345;SDS011;42246;46.096;13.644;2023-12-20T07:38:41;8.20;;;5.63;;
56345;SDS011;42246;46.096;13.644;2023-12-20T07:41:09;18.75;;;10.60;;
56345;SDS011;42246;46.096;13.644;2023-12-20T07:43:37;8.93;;;4.60;;
56345;SDS011;42246;46.096;13.644;2023-12-20T07:46:06;5.10;;;3.58;;
56345;SDS011;42246;46.096;13.644;2023-12-20T07:48:32;2.83;;;2.08;;
56345;SDS011;42246;46.096;13.644;2023-12-20T07:50:58;2.85;;;1.55;;
56345;SDS011;42246;46.096;13.644;2023-12-20T07:53:24;2.80;;;1.52;;
56345;SDS011;42246;46.096;13.644;2023-12-20T07:55:49;4.57;;;2.03;;
56345;SDS011;42246;46.096;13.644;2023-12-20T07:58:14;2.40;;;1.60;;
56345;SDS011;42246;46.096;13.644;2023-12-20T08:00:40;3.45;;;1.75;;
56345;SDS011;42246;46.096;13.644;2023-12-20T08:03:05;3.63;;;1.27;;
56345;SDS011;42246;46.096;13.644;2023-12-20T08:05:32;1.85;;;1.40;;
56345;SDS011;42246;46.096;13.644;2023-12-20T08:07:57;3.33;;;1.77;;
56345;SDS011;42246;46.096;13.644;2023-12-20T08:10:22;3.60;;;2.17;;
56345;SDS011;42246;46.096;13.644;2023-12-20T08:12:48;2.97;;;1.40;;
56345;SDS011;42246;46.096;13.644;2023-12-20T08:15:13;6.15;;;1.80;;
56345;SDS011;42246;46.096;13.644;2023-12-20T08:17:39;2.80;;;2.38;;
56345;SDS011;42246;46.096;13.644;2023-12-20T08:20:05;11.32;;;2.35;;
56345;SDS011;42246;46.096;13.644;2023-12-20T08:22:31;3.42;;;1.90;;
56345;SDS011;42246;46.096;13.644;2023-12-20T08:24:56;2.88;;;1.95;;
56345;SDS011;42246;46.096;13.644;2023-12-20T08:27:22;14.52;;;2.33;;
56345;SDS011;42246;46.096;13.644;2023-12-20T08:29:47;2.47;;;1.80;;
56345;SDS011;42246;46.096;13.644;2023-12-20T08:32:14;3.30;;;2.38;;
56345;SDS011;42246;46.096;13.644;2023-12-20T08:34:40;6.43;;;3.08;;
56345;SDS011;42246;46.096;13.644;2023-12-20T08:37:05;5.57;;;3.28;;
56345;SDS011;42246;46.096;13.644;2023-12-20T08:39:31;3.90;;;1.92;;
56345;SDS011;42246;46.096;13.644;2023-12-20T08:41:58;3.17;;;1.55;;
56345;SDS011;42246;46.096;13.644;2023-12-20T08:44:24;2.80;;;1.58;;
56345;SDS011;42246;46.096;13.644;2023-12-20T08:46:49;1.92;;;1.65;;
56345;SDS011;42246;46.096;13.644;2023-12-20T08:49:15;2.97;;;1.60;;
56345;SDS011;42246;46.096;13.644;2023-12-20T08:51:40;6.35;;;2.10;;
56345;SDS011;42246;46.096;13.644;2023-12-20T08:54:07;4.65;;;1.90;;
56345;SDS011;42246;46.096;13.644;2023-12-20T08:56:35;3.92;;;2.38;;
56345;SDS011;42246;46.096;13.644;2023-12-20T08:59:00;4.22;;;2.58;;
56345;SDS011;42246;46.096;13.644;2023-12-20T09:01:26;5.25;;;3.97;;
56345;SDS011;42246;46.096;13.644;2023-12-20T09:03:51;6.47;;;4.28;;
56345;SDS011;42246;46.096;13.644;2023-12-20T09:06:17;4.63;;;2.03;;
56345;SDS011;42246;46.096;13.644;2023-12-20T09:08:42;4.47;;;2.20;;
56345;SDS011;42246;46.096;13.644;2023-12-20T09:11:08;3.80;;;1.50;;
56345;SDS011;42246;46.096;13.644;2023-12-20T09:13:33;2.58;;;1.73;;
56345;SDS011;42246;46.096;13.644;2023-12-20T09:15:59;6.05;;;2.72;;
56345;SDS011;42246;46.096;13.644;2023-12-20T09:18:24;3.38;;;1.63;;
56345;SDS011;42246;46.096;13.644;2023-12-20T09:20:50;5.30;;;2.50;;
56345;SDS011;42246;46.096;13.644;2023-12-20T09:23:15;3.78;;;2.20;;
56345;SDS011;42246;46.096;13.644;2023-12-20T09:25:42;3.38;;;1.38;;
56345;SDS011;42246;46.096;13.644;2023-12-20T09:28:07;3.03;;;2.03;;
56345;SDS011;42246;46.096;13.644;2023-12-20T09:30:32;5.82;;;1.85;;
56345;SDS011;42246;46.096;13.644;2023-12-20T09:32:58;5.03;;;1.85;;
56345;SDS011;42246;46.096;13.644;2023-12-20T09:35:24;3.08;;;2.05;;
56345;SDS011;42246;46.096;13.644;2023-12-20T09:37:49;4.45;;;3.25;;
56345;SDS011;42246;46.096;13.644;2023-12-20T09:40:16;5.78;;;2.78;;
56345;SDS011;42246;46.096;13.644;2023-12-20T09:42:53;4.97;;;2.05;;
56345;SDS011;42246;46.096;13.644;2023-12-20T09:45:22;6.43;;;3.90;;
56345;SDS011;42246;46.096;13.644;2023-12-20T09:47:48;5.57;;;3.33;;
56345;SDS011;42246;46.096;13.644;2023-12-20T09:50:15;5.80;;;3.22;;
56345;SDS011;42246;46.096;13.644;2023-12-20T09:52:42;5.53;;;2.35;;
56345;SDS011;42246;46.096;13.644;2023-12-20T09:55:08;6.50;;;2.47;;
56345;SDS011;42246;46.096;13.644;2023-12-20T09:57:34;3.53;;;1.63;;
56345;SDS011;42246;46.096;13.644;2023-12-20T10:00:00;3.22;;;2.30;;
56345;SDS011;42246;46.096;13.644;2023-12-20T10:02:25;2.75;;;1.83;;
56345;SDS011;42246;46.096;13.644;2023-12-20T10:04:52;5.32;;;2.15;;
56345;SDS011;42246;46.096;13.644;2023-12-20T10:07:18;1.88;;;1.38;;
56345;SDS011;42246;46.096;13.644;2023-12-20T10:09:44;4.57;;;1.92;;
56345;SDS011;42246;46.096;13.644;2023-12-20T10:12:09;6.32;;;1.98;;
56345;SDS011;42246;46.096;13.644;2023-12-20T10:14:35;2.72;;;1.15;;
56345;SDS011;42246;46.096;13.644;2023-12-20T10:17:03;3.05;;;1.88;;
56345;SDS011;42246;46.096;13.644;2023-12-20T10:19:29;4.55;;;2.33;;
56345;SDS011;42246;46.096;13.644;2023-12-20T10:21:55;5.97;;;2.47;;
56345;SDS011;42246;46.096;13.644;2023-12-20T10:24:21;4.88;;;1.65;;
56345;SDS011;42246;46.096;13.644;2023-12-20T10:26:46;6.97;;;3.20;;
56345;SDS011;42246;46.096;13.644;2023-12-20T10:29:12;2.65;;;1.92;;
56345;SDS011;42246;46.096;13.644;2023-12-20T10:31:37;3.67;;;2.13;;
56345;SDS011;42246;46.096;13.644;2023-12-20T10:34:07;3.67;;;2.13;;
56345;SDS011;42246;46.096;13.644;2023-12-20T10:36:33;2.92;;;1.70;;
56345;SDS011;42246;46.096;13.644;2023-12-20T10:38:58;3.33;;;1.95;;
56345;SDS011;42246;46.096;13.644;2023-12-20T10:41:31;3.75;;;1.75;;
56345;SDS011;42246;46.096;13.644;2023-12-20T10:44:01;6.53;;;2.55;;
56345;SDS011;42246;46.096;13.644;2023-12-20T10:46:28;3.00;;;2.70;;
56345;SDS011;42246;46.096;13.644;2023-12-20T10:48:55;4.53;;;2.03;;
56345;SDS011;42246;46.096;13.644;2023-12-20T10:51:21;2.60;;;1.75;;
56345;SDS011;42246;46.096;13.644;2023-12-20T10:53:48;3.58;;;2.78;;
56345;SDS011;42246;46.096;13.644;2023-12-20T10:56:17;5.93;;;3.28;;
56345;SDS011;42246;46.096;13.644;2023-12-20T10:58:43;5.05;;;3.63;;
56345;SDS011;42246;46.096;13.644;2023-12-20T11:01:09;4.38;;;2.78;;
56345;SDS011;42246;46.096;13.644;2023-12-20T11:03:38;4.13;;;2.28;;
56345;SDS011;42246;46.096;13.644;2023-12-20T11:14:48;4.97;;;2.45;;
56345;SDS011;42246;46.096;13.644;2023-12-20T11:17:13;4.03;;;2.20;;
56345;SDS011;42246;46.096;13.644;2023-12-20T11:22:17;2.75;;;2.00;;
56345;SDS011;42246;46.096;13.644;2023-12-20T11:24:44;4.20;;;2.40;;
56345;SDS011;42246;46.096;13.644;2023-12-20T11:27:10;6.07;;;2.53;;
56345;SDS011;42246;46.096;13.644;2023-12-20T11:29:36;4.65;;;2.33;;
56345;SDS011;42246;46.096;13.644;2023-12-20T11:32:04;2.60;;;1.60;;
56345;SDS011;42246;46.096;13.644;2023-12-20T11:34:56;4.65;;;2.30;;
56345;SDS011;42246;46.096;13.644;2023-12-20T11:37:28;3.65;;;1.98;;
56345;SDS011;42246;46.096;13.644;2023-12-20T11:40:16;7.88;;;2.03;;
56345;SDS011;42246;46.096;13.644;2023-12-20T11:45:11;9.05;;;2.25;;
56345;SDS011;42246;46.096;13.644;2023-12-20T11:47:40;6.25;;;3.33;;
56345;SDS011;42246;46.096;13.644;2023-12-20T11:50:07;4.07;;;2.33;;
56345;SDS011;42246;46.096;13.644;2023-12-20T11:52:33;4.30;;;2.30;;
56345;SDS011;42246;46.096;13.644;2023-12-20T11:54:58;4.00;;;1.73;;
56345;SDS011;42246;46.096;13.644;2023-12-20T11:57:24;4.07;;;3.03;;
56345;SDS011;42246;46.096;13.644;2023-12-20T11:59:50;5.43;;;3.50;;
56345;SDS011;42246;46.096;13.644;2023-12-20T12:02:15;5.00;;;2.88;;
56345;SDS011;42246;46.096;13.644;2023-12-20T12:04:41;3.88;;;2.20;;
56345;SDS011;42246;46.096;13.644;2023-12-20T12:07:07;3.45;;;2.65;;
56345;SDS011;42246;46.096;13.644;2023-12-20T12:09:32;5.07;;;2.60;;
56345;SDS011;42246;46.096;13.644;2023-12-20T12:11:58;4.20;;;3.00;;
56345;SDS011;42246;46.096;13.644;2023-12-20T12:14:23;5.82;;;2.95;;
56345;SDS011;42246;46.096;13.644;2023-12-20T12:16:49;8.25;;;3.55;;
56345;SDS011;42246;46.096;13.644;2023-12-20T12:19:25;6.85;;;3.42;;
56345;SDS011;42246;46.096;13.644;2023-12-20T12:21:51;5.38;;;3.42;;
56345;SDS011;42246;46.096;13.644;2023-12-20T12:24:31;4.82;;;2.25;;
56345;SDS011;42246;46.096;13.644;2023-12-20T12:26:57;5.57;;;2.65;;
56345;SDS011;42246;46.096;13.644;2023-12-20T12:29:23;8.32;;;3.85;;
56345;SDS011;42246;46.096;13.644;2023-12-20T12:31:49;4.50;;;1.80;;
56345;SDS011;42246;46.096;13.644;2023-12-20T12:34:15;4.93;;;3.08;;
56345;SDS011;42246;46.096;13.644;2023-12-20T12:36:41;3.00;;;2.08;;
56345;SDS011;42246;46.096;13.644;2023-12-20T12:39:06;6.40;;;2.80;;
56345;SDS011;42246;46.096;13.644;2023-12-20T12:41:32;4.70;;;2.10;;
56345;SDS011;42246;46.096;13.644;2023-12-20T12:43:59;5.05;;;3.40;;
56345;SDS011;42246;46.096;13.644;2023-12-20T12:46:25;6.70;;;2.22;;
56345;SDS011;42246;46.096;13.644;2023-12-20T12:48:50;5.60;;;2.50;;
56345;SDS011;42246;46.096;13.644;2023-12-20T12:51:16;6.25;;;2.78;;
56345;SDS011;42246;46.096;13.644;2023-12-20T12:53:41;4.75;;;2.17;;
56345;SDS011;42246;46.096;13.644;2023-12-20T12:56:07;6.68;;;3.42;;
56345;SDS011;42246;46.096;13.644;2023-12-20T12:58:33;4.32;;;3.00;;
56345;SDS011;42246;46.096;13.644;2023-12-20T13:00:59;5.13;;;2.45;;
56345;SDS011;42246;46.096;13.644;2023-12-20T13:03:24;4.88;;;2.30;;
56345;SDS011;42246;46.096;13.644;2023-12-20T13:05:50;3.58;;;2.63;;
56345;SDS011;42246;46.096;13.644;2023-12-20T13:08:15;3.95;;;2.28;;
56345;SDS011;42246;46.096;13.644;2023-12-20T13:10:41;5.22;;;2.85;;
56345;SDS011;42246;46.096;13.644;2023-12-20T13:13:06;9.25;;;3.30;;
56345;SDS011;42246;46.096;13.644;2023-12-20T13:15:32;5.13;;;3.08;;
56345;SDS011;42246;46.096;13.644;2023-12-20T13:17:57;5.18;;;2.42;;
56345;SDS011;42246;46.096;13.644;2023-12-20T13:20:23;5.32;;;3.38;;
56345;SDS011;42246;46.096;13.644;2023-12-20T13:22:48;5.85;;;3.33;;
56345;SDS011;42246;46.096;13.644;2023-12-20T13:25:13;7.10;;;3.17;;
56345;SDS011;42246;46.096;13.644;2023-12-20T13:27:39;5.22;;;3.63;;
56345;SDS011;42246;46.096;13.644;2023-12-20T13:30:05;8.77;;;3.60;;
56345;SDS011;42246;46.096;13.644;2023-12-20T13:32:31;5.18;;;3.78;;
56345;SDS011;42246;46.096;13.644;2023-12-20T13:34:57;5.28;;;3.03;;
56345;SDS011;42246;46.096;13.644;2023-12-20T13:37:22;4.28;;;3.17;;
56345;SDS011;42246;46.096;13.644;2023-12-20T13:39:48;6.35;;;4.00;;
56345;SDS011;42246;46.096;13.644;2023-12-20T13:42:13;6.90;;;2.92;;
56345;SDS011;42246;46.096;13.644;2023-12-20T13:44:39;4.68;;;2.50;;
56345;SDS011;42246;46.096;13.644;2023-12-20T13:47:05;5.25;;;3.20;;
56345;SDS011;42246;46.096;13.644;2023-12-20T13:49:31;5.20;;;3.55;;
56345;SDS011;42246;46.096;13.644;2023-12-20T13:51:57;6.80;;;3.85;;
56345;SDS011;42246;46.096;13.644;2023-12-20T13:54:22;5.43;;;2.67;;
56345;SDS011;42246;46.096;13.644;2023-12-20T13:56:48;6.72;;;3.05;;
56345;SDS011;42246;46.096;13.644;2023-12-20T13:59:13;9.73;;;3.33;;
56345;SDS011;42246;46.096;13.644;2023-12-20T14:01:40;4.00;;;2.53;;
56345;SDS011;42246;46.096;13.644;2023-12-20T14:04:06;5.45;;;4.45;;
56345;SDS011;42246;46.096;13.644;2023-12-20T14:06:32;6.93;;;4.03;;
56345;SDS011;42246;46.096;13.644;2023-12-20T14:08:58;10.38;;;4.22;;
56345;SDS011;42246;46.096;13.644;2023-12-20T14:11:25;4.25;;;3.35;;
56345;SDS011;42246;46.096;13.644;2023-12-20T14:13:51;6.78;;;3.90;;
56345;SDS011;42246;46.096;13.644;2023-12-20T14:16:16;5.63;;;4.22;;
56345;SDS011;42246;46.096;13.644;2023-12-20T14:18:42;6.65;;;3.83;;
56345;SDS011;42246;46.096;13.644;2023-12-20T14:21:07;5.78;;;3.15;;
56345;SDS011;42246;46.096;13.644;2023-12-20T14:23:33;5.38;;;3.60;;
56345;SDS011;42246;46.096;13.644;2023-12-20T14:26:01;4.05;;;2.55;;
56345;SDS011;42246;46.096;13.644;2023-12-20T14:28:27;6.97;;;3.47;;
56345;SDS011;42246;46.096;13.644;2023-12-20T14:30:52;6.47;;;3.97;;
56345;SDS011;42246;46.096;13.644;2023-12-20T14:33:18;7.25;;;3.55;;
56345;SDS011;42246;46.096;13.644;2023-12-20T14:35:46;6.93;;;3.85;;